• Join FlightAware (Why Join?)
  • Login
  • US Flag 
01:58PM EDT


 

Airport Tracker/Info


-or-


 

Live Flight TrackerFlight Track Log ✈ SWA232 ✈ 02-May-2013 ✈ KMHT - KMDW

Flight Track Log - Related Links

Times and Time Zones

All times are in EDT time to prevent confusion due to time zone crossing. See the SWA232 flight status page for this flight to view local times or setup timezone preferences in your user account.

Time Position Orientation Groundspeed Altitude Reporting Facility
EDT Latitude Longitude Course Direction KTS MPH feet Rate Location/Type
06:39AM 42.9500 -71.4167 26° Northeast 170 196 1,100  Level KA90
06:40AM 43.0000 -71.3833 26° Northeast 230 265 3,100 2,340 Climbing KA90
06:40AM 43.0250 -71.3836 360° North 287 330 4,500 3,240 Climbing Boston Center
06:41AM 43.0714 -71.4653 308° West 232 267 8,200 3,060 Climbing Boston Center
06:42AM 43.0889 -71.5475 286° West 246 283 10,700 2,580 Climbing Boston Center
06:43AM 43.0942 -71.7094 273° West 336 387 13,400 2,580 Climbing Boston Center
06:44AM 43.0969 -71.8372 272° West 370 426 15,900 2,340 Climbing Boston Center
06:45AM 43.1039 -72.0022 273° West 396 456 18,100 2,160 Climbing Boston Center
06:46AM 43.1086 -72.1444 273° West 408 470 20,300 2,400 Climbing Boston Center
06:47AM 43.1172 -72.3178 274° West 414 476 23,000 2,400 Climbing Boston Center
06:48AM 43.1256 -72.4800 274° West 424 488 25,100 1,860 Climbing Boston Center
06:49AM 43.1214 -72.6450 268° West 424 488 26,800 1,500 Climbing Boston Center
06:50AM 43.1272 -72.8183 273° West 436 502 28,100 1,200 Climbing Boston Center
06:51AM 43.1306 -72.9947 272° West 455 524 29,300 1,140 Climbing Boston Center
06:52AM 43.1358 -73.1600 273° West 470 541 30,400 1,260 Climbing Boston Center
06:53AM 43.1408 -73.3419 272° West 482 555 31,900 1,680 Climbing Boston Center
06:54AM 43.1414 -73.5328 270° West 476 548 33,800 1,740 Climbing Boston Center
06:55AM 43.1436 -73.7119 271° West 471 542 35,400 1,080 Climbing Boston Center
06:56AM 43.1456 -73.8886 271° West 471 542 36,000 300 Climbing Boston Center
06:57AM 43.1494 -74.0622 272° West 471 542 36,000  Level Boston Center
06:58AM 43.1511 -74.2386 271° West 466 536 36,000  Level Boston Center
06:59AM 43.1544 -74.4125 272° West 461 531 36,000  Level Boston Center
07:00AM 43.1556 -74.5861 271° West 461 531 36,000  Level Boston Center
07:01AM 43.1522 -74.7567 269° West 461 531 36,000  Level Boston Center
07:02AM 43.1008 -74.9197 247° West 461 531 36,000  Level Boston Center
07:03AM 43.0658 -75.0861 254° West 456 525 36,000  Level Boston Center
07:04AM 43.0533 -75.2561 264° West 456 525 36,000  Level Boston Center
07:05AM 43.0386 -75.4258 263° West 456 525 36,000  Level Boston Center
07:06AM 43.0258 -75.5928 264° West 450 518 36,000  Level Boston Center
07:07AM 43.0106 -75.7625 263° West 450 518 36,000  Level Boston Center
07:09AM 42.9858 -76.0417 263° West 437 503 36,000  Level Cleveland Center
07:10AM 42.9694 -76.2131 263° West 448 516 36,000  Level Cleveland Center
07:11AM 42.9550 -76.3817 263° West 448 516 36,000  Level Cleveland Center
07:12AM 42.9381 -76.5531 262° West 453 521 36,000  Level Cleveland Center
07:13AM 42.9261 -76.6869 263° West 453 521 36,000  Level Cleveland Center
07:14AM 42.9092 -76.8694 263° West 453 521 36,000  Level Cleveland Center
07:15AM 42.8914 -77.0378 262° West 448 516 36,000  Level Cleveland Center
07:16AM 42.8442 -77.1936 248° West 448 516 36,000  Level Cleveland Center
07:17AM 42.7942 -77.3461 246° West 448 516 36,000  Level Cleveland Center
07:18AM 42.7461 -77.4928 246° West 442 509 36,000  Level Cleveland Center
07:19AM 42.6881 -77.6653 245° Southwest 447 514 36,000  Level Cleveland Center
07:20AM 42.6375 -77.8172 246° West 447 514 36,000  Level Cleveland Center
07:21AM 42.5850 -77.9717 245° Southwest 447 514 36,000  Level Cleveland Center
07:22AM 42.5339 -78.1206 245° Southwest 447 514 36,000  Level Cleveland Center
07:23AM 42.4831 -78.2717 246° West 447 514 36,000  Level Cleveland Center
07:24AM 42.4317 -78.4256 246° West 447 514 36,000  Level Cleveland Center
07:25AM 42.3822 -78.5706 245° Southwest 447 514 36,000  Level Cleveland Center
07:26AM 42.3306 -78.7211 245° Southwest 447 514 36,000  Level Cleveland Center
07:27AM 42.2786 -78.8714 245° Southwest 447 514 36,000  Level Cleveland Center
07:28AM 42.2539 -79.0319 258° West 442 509 36,000  Level Cleveland Center
07:29AM 42.2331 -79.1922 260° West 442 509 36,000  Level Cleveland Center
07:30AM 42.2119 -79.3581 260° West 442 509 36,000  Level Cleveland Center
07:31AM 42.1886 -79.5239 259° West 447 514 36,000  Level Cleveland Center
07:32AM 42.1669 -79.6839 260° West 447 514 36,000  Level Cleveland Center
07:33AM 42.1431 -79.8494 259° West 447 514 36,000  Level Cleveland Center
07:34AM 42.1192 -80.0094 259° West 447 514 36,000  Level Cleveland Center
07:35AM 42.0989 -80.1719 261° West 447 514 36,000  Level Cleveland Center
07:36AM 42.0744 -80.3342 259° West 447 514 36,000  Level Cleveland Center
07:37AM 42.0517 -80.4964 259° West 447 514 36,000  Level Cleveland Center
07:38AM 42.0267 -80.6558 258° West 447 514 36,000  Level Cleveland Center
07:39AM 42.0036 -80.8150 259° West 447 514 36,000  Level Cleveland Center
07:40AM 41.9803 -80.9742 259° West 447 514 36,000  Level Cleveland Center
07:41AM 41.9567 -81.1361 259° West 447 514 36,000  Level Cleveland Center
07:42AM 41.9328 -81.2978 259° West 447 514 36,000  Level Cleveland Center
07:43AM 41.9108 -81.4369 258° West 442 509 36,000  Level Cleveland Center
07:44AM 41.8867 -81.5956 258° West 436 502 36,000  Level Cleveland Center
07:45AM 41.8622 -81.7514 258° West 431 496 36,000  Level Cleveland Center
07:46AM 41.8378 -81.9014 258° West 425 489 36,000  Level Cleveland Center
07:47AM 41.8150 -82.0542 259° West 425 489 36,000  Level Cleveland Center
07:48AM 41.7881 -82.2011 256° West 420 483 36,000  Level Cleveland Center
07:49AM 41.7650 -82.3564 259° West 420 483 36,000  Level Cleveland Center
07:51AM 41.7139 -82.6556 257° West 420 483 36,000  Level Cleveland Center
07:52AM 41.6883 -82.8075 257° West 420 483 36,000  Level Cleveland Center
07:53AM 41.6642 -82.9625 258° West 420 483 36,000  Level Cleveland Center
07:54AM 41.6381 -83.1089 257° West 420 483 36,000  Level Cleveland Center
07:55AM 41.6139 -83.2606 258° West 420 483 36,000  Level Cleveland Center
07:56AM 41.5853 -83.4122 256° West 420 483 36,000  Level Cleveland Center
07:57AM 41.5606 -83.5636 258° West 420 483 36,000 -120 Level Cleveland Center
07:58AM 41.5356 -83.7125 257° West 420 483 35,800 -600 Descending Cleveland Center
07:59AM 41.5106 -83.8636 258° West 420 483 34,800 -900 Descending Cleveland Center
08:00AM 41.4792 -84.0119 254° West 420 483 34,000 -420 Descending Cleveland Center
08:01AM 41.3986 -84.1239 226° Southwest 408 470 34,000  Level Cleveland Center
08:02AM 41.3181 -84.2300 225° Southwest 415 478 34,000 -780 Level Cleveland Center
08:03AM 41.2333 -84.3358 223° Southwest 415 478 32,500 -1,680 Descending Cleveland Center
08:04AM 41.1867 -84.4981 249° West 429 494 30,500 -1,200 Descending Chicago Center
08:05AM 41.2247 -84.6547 288° West 443 510 30,000 -300 Descending Chicago Center
08:06AM 41.2600 -84.8108 287° West 442 509 30,000 -240 Level Chicago Center
08:07AM 41.2942 -84.9672 286° West 442 509 29,600 -780 Descending Chicago Center
08:08AM 41.3261 -85.1131 286° West 416 479 28,500 -1,320 Descending Chicago Center
08:09AM 41.3569 -85.2553 286° West 403 464 27,000 -1,980 Descending Chicago Center
08:10AM 41.3886 -85.3969 287° West 398 458 24,500 -2,700 Descending Chicago Center
08:11AM 41.4258 -85.5706 286° West 400 460 21,500 -3,120 Descending Chicago Center
08:12AM 41.4567 -85.7103 286° West 391 450 18,200 -2,820 Descending Chicago Center
08:13AM 41.4875 -85.8569 286° West 405 466 15,800 -1,740 Descending Chicago Center
08:14AM 41.5181 -85.9997 286° West 401 461 14,700 -1,020 Descending Chicago Center
08:16AM 41.5242 -86.1450 273° West 394 453 13,700 -1,080 Descending Chicago Center
08:17AM 41.5233 -86.2894 270° West 390 449 12,600 -1,380 Descending Chicago Center
08:18AM 41.5228 -86.4303 270° West 382 440 10,900 -1,260 Descending Chicago Center
08:19AM 41.5211 -86.5656 269° West 369 425 10,100 -540 Descending Chicago Center
08:20AM 41.5192 -86.6886 269° West 335 386 9,900 -120 Descending Chicago Center
08:21AM 41.4956 -86.8144 256° West 295 339 9,900  Level Chicago Center
08:22AM 41.4719 -86.9097 252° West 301 346 9,900 -600 Level Chicago Center
08:23AM 41.4911 -87.0203 283° West 309 356 8,700 -1,080 Descending Chicago Center
08:24AM 41.5103 -87.1269 284° West 299 344 7,700 -1,140 Descending Chicago Center
08:24AM 41.5167 -87.2000 277° West 282 325 6,900 -1,140 Descending Chicago TRACON
08:25AM 41.5167 -87.2833 270° West 274 315 6,000 -480 Descending Chicago TRACON
08:26AM 41.5167 -87.4000 270° West 270 311 6,000 -120 Level Chicago TRACON
08:27AM 41.5128 -87.4467 264° West 270 311 5,900 -660 Descending Chicago Center
08:28AM 41.5119 -87.5283 269° West 241 277 5,000 -960 Descending Chicago Center
08:29AM 41.5433 -87.5975 301° West 238 274 4,000 -480 Descending Chicago Center
08:30AM 41.5914 -87.6528 319° Northwest 234 269 4,100  Climbing Chicago Center
08:31AM 41.6150 -87.7097 299° West 215 247 4,000 -60 Descending Chicago Center
08:32AM 41.6139 -87.7761 269° West 193 222 4,000  Level Chicago Center
08:33AM 41.5811 -87.8414 236° Southwest 183 211 4,000  Level Chicago Center
08:34AM 41.5419 -87.8806 217° Southwest 179 206 4,000  Level Chicago Center
08:35AM 41.5039 -87.9211 219° Southwest 177 204 4,000 -60 Level Chicago Center
08:36AM 41.5219 -87.9767 293° West 185 213 3,900 -540 Descending Chicago Center
08:37AM 41.5544 -88.0289 310° West 185 213 3,000 -480 Descending Chicago Center
08:38AM 41.5958 -87.9986 29° Northeast 185 213 3,000  Level Chicago Center
08:39AM 41.6289 -87.9456 50° Northeast 185 213 3,000  Level Chicago Center
08:40AM 41.6672 -87.9014 41° Northeast 183 211 3,000  Level Chicago Center
08:41AM 41.7000 -87.8667 38° Northeast 185 213 3,000 -540 Level Chicago TRACON
08:42AM 41.7333 -87.8333 37° Northeast 155 178 2,200 -780 Descending Chicago TRACON
08:43AM 41.7500 -87.8000 56° Northeast 125 144 1,500 -720 Descending Chicago TRACON
08:45AM 41.7833 -87.7500 44° Northeast  Level FlightAware Approximate